sensor_id;sensor_type;location;lat;lon;timestamp;P1;durP1;ratioP1;P2;durP2;ratioP2
8640;SDS011;4358;42.100;25.222;2023-05-29T00:01:00;6.17;;;3.83;;
8640;SDS011;4358;42.100;25.222;2023-05-29T00:03:27;5.47;;;4.07;;
8640;SDS011;4358;42.100;25.222;2023-05-29T00:05:58;5.40;;;3.53;;
8640;SDS011;4358;42.100;25.222;2023-05-29T00:08:26;5.83;;;3.97;;
8640;SDS011;4358;42.100;25.222;2023-05-29T00:10:53;5.13;;;3.33;;
8640;SDS011;4358;42.100;25.222;2023-05-29T00:13:20;5.23;;;3.80;;
8640;SDS011;4358;42.100;25.222;2023-05-29T00:15:48;5.57;;;3.63;;
8640;SDS011;4358;42.100;25.222;2023-05-29T00:18:15;3.50;;;3.20;;
8640;SDS011;4358;42.100;25.222;2023-05-29T00:20:42;6.13;;;4.03;;
8640;SDS011;4358;42.100;25.222;2023-05-29T00:23:09;6.77;;;3.93;;
8640;SDS011;4358;42.100;25.222;2023-05-29T00:25:35;6.97;;;3.70;;
8640;SDS011;4358;42.100;25.222;2023-05-29T00:28:02;7.03;;;4.27;;
8640;SDS011;4358;42.100;25.222;2023-05-29T00:30:29;5.27;;;4.40;;
8640;SDS011;4358;42.100;25.222;2023-05-29T00:32:57;5.77;;;4.00;;
8640;SDS011;4358;42.100;25.222;2023-05-29T00:35:24;4.87;;;3.93;;
8640;SDS011;4358;42.100;25.222;2023-05-29T00:37:51;5.80;;;4.10;;
8640;SDS011;4358;42.100;25.222;2023-05-29T00:40:18;6.43;;;4.37;;
8640;SDS011;4358;42.100;25.222;2023-05-29T00:42:44;5.00;;;4.10;;
8640;SDS011;4358;42.100;25.222;2023-05-29T00:45:11;7.37;;;4.03;;
8640;SDS011;4358;42.100;25.222;2023-05-29T00:47:39;10.20;;;4.53;;
8640;SDS011;4358;42.100;25.222;2023-05-29T00:50:09;4.40;;;3.93;;
8640;SDS011;4358;42.100;25.222;2023-05-29T00:52:39;7.20;;;4.20;;
8640;SDS011;4358;42.100;25.222;2023-05-29T00:55:08;5.23;;;4.23;;
8640;SDS011;4358;42.100;25.222;2023-05-29T00:57:35;5.37;;;4.40;;
8640;SDS011;4358;42.100;25.222;2023-05-29T01:00:04;4.90;;;4.03;;
8640;SDS011;4358;42.100;25.222;2023-05-29T01:02:33;8.07;;;4.70;;
8640;SDS011;4358;42.100;25.222;2023-05-29T01:05:02;7.77;;;4.90;;
8640;SDS011;4358;42.100;25.222;2023-05-29T01:07:30;7.53;;;5.23;;
8640;SDS011;4358;42.100;25.222;2023-05-29T01:09:57;7.07;;;5.60;;
8640;SDS011;4358;42.100;25.222;2023-05-29T01:12:26;6.90;;;5.40;;
8640;SDS011;4358;42.100;25.222;2023-05-29T01:15:05;5.73;;;5.17;;
8640;SDS011;4358;42.100;25.222;2023-05-29T01:17:53;6.90;;;4.93;;
8640;SDS011;4358;42.100;25.222;2023-05-29T01:20:34;6.57;;;5.13;;
8640;SDS011;4358;42.100;25.222;2023-05-29T01:23:12;7.37;;;5.23;;
8640;SDS011;4358;42.100;25.222;2023-05-29T01:28:41;9.53;;;5.67;;
8640;SDS011;4358;42.100;25.222;2023-05-29T01:31:10;6.43;;;5.40;;
8640;SDS011;4358;42.100;25.222;2023-05-29T01:33:40;7.33;;;5.30;;
8640;SDS011;4358;42.100;25.222;2023-05-29T01:36:07;7.37;;;5.10;;
8640;SDS011;4358;42.100;25.222;2023-05-29T01:38:34;7.30;;;4.90;;
8640;SDS011;4358;42.100;25.222;2023-05-29T01:41:01;7.30;;;5.33;;
8640;SDS011;4358;42.100;25.222;2023-05-29T01:43:29;6.43;;;4.30;;
8640;SDS011;4358;42.100;25.222;2023-05-29T01:45:58;5.27;;;4.77;;
8640;SDS011;4358;42.100;25.222;2023-05-29T01:48:26;6.80;;;4.33;;
8640;SDS011;4358;42.100;25.222;2023-05-29T01:50:54;6.90;;;4.40;;
8640;SDS011;4358;42.100;25.222;2023-05-29T01:53:21;5.67;;;4.80;;
8640;SDS011;4358;42.100;25.222;2023-05-29T01:55:49;6.77;;;5.57;;
8640;SDS011;4358;42.100;25.222;2023-05-29T01:58:16;9.50;;;5.90;;
8640;SDS011;4358;42.100;25.222;2023-05-29T02:00:45;6.93;;;5.47;;
8640;SDS011;4358;42.100;25.222;2023-05-29T02:03:13;8.97;;;5.83;;
8640;SDS011;4358;42.100;25.222;2023-05-29T02:05:40;9.93;;;6.00;;
8640;SDS011;4358;42.100;25.222;2023-05-29T02:08:07;6.60;;;5.97;;
8640;SDS011;4358;42.100;25.222;2023-05-29T02:10:34;8.10;;;5.80;;
8640;SDS011;4358;42.100;25.222;2023-05-29T02:13:00;7.50;;;6.00;;
8640;SDS011;4358;42.100;25.222;2023-05-29T02:15:27;8.63;;;6.57;;
8640;SDS011;4358;42.100;25.222;2023-05-29T02:17:54;8.87;;;6.97;;
8640;SDS011;4358;42.100;25.222;2023-05-29T02:20:24;9.00;;;6.93;;
8640;SDS011;4358;42.100;25.222;2023-05-29T02:22:50;8.47;;;7.30;;
8640;SDS011;4358;42.100;25.222;2023-05-29T02:25:17;9.83;;;7.90;;
8640;SDS011;4358;42.100;25.222;2023-05-29T02:27:44;7.03;;;5.40;;
8640;SDS011;4358;42.100;25.222;2023-05-29T02:30:11;4.87;;;4.33;;
8640;SDS011;4358;42.100;25.222;2023-05-29T02:32:38;7.27;;;4.20;;
8640;SDS011;4358;42.100;25.222;2023-05-29T02:35:06;6.37;;;4.33;;
8640;SDS011;4358;42.100;25.222;2023-05-29T02:37:35;6.63;;;4.53;;
8640;SDS011;4358;42.100;25.222;2023-05-29T02:40:01;5.87;;;4.23;;
8640;SDS011;4358;42.100;25.222;2023-05-29T02:42:28;6.17;;;4.37;;
8640;SDS011;4358;42.100;25.222;2023-05-29T02:44:55;6.00;;;4.47;;
8640;SDS011;4358;42.100;25.222;2023-05-29T02:47:22;5.23;;;4.33;;
8640;SDS011;4358;42.100;25.222;2023-05-29T02:49:49;8.10;;;5.60;;
8640;SDS011;4358;42.100;25.222;2023-05-29T02:52:15;9.30;;;7.70;;
8640;SDS011;4358;42.100;25.222;2023-05-29T02:54:43;9.20;;;8.10;;
8640;SDS011;4358;42.100;25.222;2023-05-29T02:57:10;12.73;;;7.90;;
8640;SDS011;4358;42.100;25.222;2023-05-29T02:59:37;8.97;;;6.13;;
8640;SDS011;4358;42.100;25.222;2023-05-29T03:02:04;8.97;;;5.60;;
8640;SDS011;4358;42.100;25.222;2023-05-29T03:04:31;13.37;;;5.37;;
8640;SDS011;4358;42.100;25.222;2023-05-29T03:06:58;8.33;;;6.30;;
8640;SDS011;4358;42.100;25.222;2023-05-29T03:09:25;7.33;;;6.63;;
8640;SDS011;4358;42.100;25.222;2023-05-29T03:11:53;5.70;;;4.90;;
8640;SDS011;4358;42.100;25.222;2023-05-29T03:14:20;5.63;;;5.00;;
8640;SDS011;4358;42.100;25.222;2023-05-29T03:16:48;8.97;;;5.20;;
8640;SDS011;4358;42.100;25.222;2023-05-29T03:19:15;6.03;;;4.80;;
8640;SDS011;4358;42.100;25.222;2023-05-29T03:21:42;6.57;;;5.07;;
8640;SDS011;4358;42.100;25.222;2023-05-29T03:24:09;7.33;;;6.40;;
8640;SDS011;4358;42.100;25.222;2023-05-29T03:26:36;10.43;;;7.07;;
8640;SDS011;4358;42.100;25.222;2023-05-29T03:29:05;11.37;;;5.90;;
8640;SDS011;4358;42.100;25.222;2023-05-29T03:31:32;8.10;;;5.70;;
8640;SDS011;4358;42.100;25.222;2023-05-29T03:33:59;7.43;;;5.27;;
8640;SDS011;4358;42.100;25.222;2023-05-29T03:36:26;6.20;;;5.20;;
8640;SDS011;4358;42.100;25.222;2023-05-29T03:38:53;9.50;;;4.53;;
8640;SDS011;4358;42.100;25.222;2023-05-29T03:41:20;6.43;;;5.17;;
8640;SDS011;4358;42.100;25.222;2023-05-29T03:43:47;10.87;;;6.40;;
8640;SDS011;4358;42.100;25.222;2023-05-29T03:46:15;13.27;;;8.40;;
8640;SDS011;4358;42.100;25.222;2023-05-29T03:48:42;8.47;;;7.27;;
8640;SDS011;4358;42.100;25.222;2023-05-29T03:51:09;7.30;;;5.80;;
8640;SDS011;4358;42.100;25.222;2023-05-29T03:53:35;7.57;;;4.93;;
8640;SDS011;4358;42.100;25.222;2023-05-29T03:56:02;9.73;;;5.10;;
8640;SDS011;4358;42.100;25.222;2023-05-29T03:58:29;5.70;;;4.50;;
8640;SDS011;4358;42.100;25.222;2023-05-29T04:00:56;6.60;;;5.00;;
8640;SDS011;4358;42.100;25.222;2023-05-29T04:03:24;6.10;;;5.03;;
8640;SDS011;4358;42.100;25.222;2023-05-29T04:05:51;5.57;;;4.63;;
8640;SDS011;4358;42.100;25.222;2023-05-29T04:08:18;9.10;;;5.40;;
8640;SDS011;4358;42.100;25.222;2023-05-29T04:10:44;6.50;;;5.00;;
8640;SDS011;4358;42.100;25.222;2023-05-29T04:13:11;8.20;;;6.03;;
8640;SDS011;4358;42.100;25.222;2023-05-29T04:15:38;7.03;;;5.30;;
8640;SDS011;4358;42.100;25.222;2023-05-29T04:18:07;5.73;;;4.40;;
8640;SDS011;4358;42.100;25.222;2023-05-29T04:20:35;7.27;;;4.37;;
8640;SDS011;4358;42.100;25.222;2023-05-29T04:23:02;6.67;;;4.57;;
8640;SDS011;4358;42.100;25.222;2023-05-29T04:25:29;6.87;;;4.80;;
8640;SDS011;4358;42.100;25.222;2023-05-29T04:27:57;5.23;;;4.50;;
8640;SDS011;4358;42.100;25.222;2023-05-29T04:30:27;8.57;;;4.43;;
8640;SDS011;4358;42.100;25.222;2023-05-29T04:32:54;5.37;;;4.73;;
8640;SDS011;4358;42.100;25.222;2023-05-29T04:35:22;13.90;;;5.97;;
8640;SDS011;4358;42.100;25.222;2023-05-29T04:37:50;8.00;;;5.07;;
8640;SDS011;4358;42.100;25.222;2023-05-29T04:40:18;6.13;;;5.47;;
8640;SDS011;4358;42.100;25.222;2023-05-29T04:42:45;8.57;;;6.50;;
8640;SDS011;4358;42.100;25.222;2023-05-29T04:45:12;7.80;;;5.87;;
8640;SDS011;4358;42.100;25.222;2023-05-29T04:47:39;7.73;;;5.80;;
8640;SDS011;4358;42.100;25.222;2023-05-29T04:50:09;8.93;;;5.47;;
8640;SDS011;4358;42.100;25.222;2023-05-29T04:52:36;6.23;;;4.80;;
8640;SDS011;4358;42.100;25.222;2023-05-29T04:55:05;8.13;;;4.53;;
8640;SDS011;4358;42.100;25.222;2023-05-29T04:57:32;5.50;;;4.20;;
8640;SDS011;4358;42.100;25.222;2023-05-29T04:59:59;5.47;;;4.43;;
8640;SDS011;4358;42.100;25.222;2023-05-29T05:02:27;5.10;;;4.60;;
8640;SDS011;4358;42.100;25.222;2023-05-29T05:04:54;6.30;;;4.50;;
8640;SDS011;4358;42.100;25.222;2023-05-29T05:07:20;11.63;;;6.03;;
8640;SDS011;4358;42.100;25.222;2023-05-29T05:09:47;6.20;;;4.73;;
8640;SDS011;4358;42.100;25.222;2023-05-29T05:12:15;7.13;;;4.70;;
8640;SDS011;4358;42.100;25.222;2023-05-29T05:14:42;8.73;;;5.07;;
8640;SDS011;4358;42.100;25.222;2023-05-29T05:17:09;6.13;;;4.87;;
8640;SDS011;4358;42.100;25.222;2023-05-29T05:19:36;6.03;;;4.40;;
8640;SDS011;4358;42.100;25.222;2023-05-29T05:22:03;5.17;;;4.67;;
8640;SDS011;4358;42.100;25.222;2023-05-29T05:24:30;7.70;;;4.67;;
8640;SDS011;4358;42.100;25.222;2023-05-29T05:26:57;7.23;;;4.87;;
8640;SDS011;4358;42.100;25.222;2023-05-29T05:29:26;8.27;;;4.83;;
8640;SDS011;4358;42.100;25.222;2023-05-29T05:31:52;7.17;;;4.80;;
8640;SDS011;4358;42.100;25.222;2023-05-29T05:34:19;5.80;;;4.60;;
8640;SDS011;4358;42.100;25.222;2023-05-29T05:36:46;6.73;;;4.63;;
8640;SDS011;4358;42.100;25.222;2023-05-29T05:39:14;6.87;;;4.80;;
8640;SDS011;4358;42.100;25.222;2023-05-29T05:41:41;5.40;;;4.77;;
8640;SDS011;4358;42.100;25.222;2023-05-29T05:44:08;6.40;;;4.83;;
8640;SDS011;4358;42.100;25.222;2023-05-29T05:46:36;6.33;;;4.47;;
8640;SDS011;4358;42.100;25.222;2023-05-29T05:49:03;7.57;;;4.40;;
8640;SDS011;4358;42.100;25.222;2023-05-29T05:51:30;5.57;;;4.27;;
8640;SDS011;4358;42.100;25.222;2023-05-29T05:53:57;5.20;;;4.27;;
8640;SDS011;4358;42.100;25.222;2023-05-29T05:56:24;5.20;;;4.07;;
8640;SDS011;4358;42.100;25.222;2023-05-29T05:58:51;7.10;;;4.57;;
8640;SDS011;4358;42.100;25.222;2023-05-29T06:01:18;5.80;;;4.23;;
8640;SDS011;4358;42.100;25.222;2023-05-29T06:03:46;7.20;;;4.73;;
8640;SDS011;4358;42.100;25.222;2023-05-29T06:06:13;5.60;;;4.43;;
8640;SDS011;4358;42.100;25.222;2023-05-29T06:08:42;6.13;;;3.73;;
8640;SDS011;4358;42.100;25.222;2023-05-29T06:11:10;7.80;;;4.60;;
8640;SDS011;4358;42.100;25.222;2023-05-29T06:13:36;7.77;;;4.00;;
8640;SDS011;4358;42.100;25.222;2023-05-29T06:16:03;5.03;;;3.63;;
8640;SDS011;4358;42.100;25.222;2023-05-29T06:18:31;5.10;;;4.20;;
8640;SDS011;4358;42.100;25.222;2023-05-29T06:20:59;6.07;;;4.30;;
8640;SDS011;4358;42.100;25.222;2023-05-29T06:23:26;6.27;;;4.57;;
8640;SDS011;4358;42.100;25.222;2023-05-29T06:25:53;4.27;;;3.87;;
8640;SDS011;4358;42.100;25.222;2023-05-29T06:28:20;5.80;;;3.80;;
8640;SDS011;4358;42.100;25.222;2023-05-29T06:30:47;7.27;;;3.57;;
8640;SDS011;4358;42.100;25.222;2023-05-29T06:33:14;5.17;;;4.30;;
8640;SDS011;4358;42.100;25.222;2023-05-29T06:35:40;6.30;;;3.60;;
8640;SDS011;4358;42.100;25.222;2023-05-29T06:38:09;4.00;;;3.60;;
8640;SDS011;4358;42.100;25.222;2023-05-29T06:40:35;6.63;;;3.57;;
8640;SDS011;4358;42.100;25.222;2023-05-29T06:43:02;7.17;;;3.70;;
8640;SDS011;4358;42.100;25.222;2023-05-29T06:45:29;4.33;;;3.87;;
8640;SDS011;4358;42.100;25.222;2023-05-29T06:47:56;4.60;;;4.10;;
8640;SDS011;4358;42.100;25.222;2023-05-29T06:50:23;4.20;;;3.80;;
8640;SDS011;4358;42.100;25.222;2023-05-29T06:52:50;5.53;;;3.80;;
8640;SDS011;4358;42.100;25.222;2023-05-29T06:55:19;4.63;;;3.23;;
8640;SDS011;4358;42.100;25.222;2023-05-29T06:57:46;4.23;;;3.57;;
8640;SDS011;4358;42.100;25.222;2023-05-29T07:00:13;7.87;;;3.50;;
8640;SDS011;4358;42.100;25.222;2023-05-29T07:02:41;4.27;;;3.33;;
8640;SDS011;4358;42.100;25.222;2023-05-29T07:05:08;3.63;;;3.33;;
8640;SDS011;4358;42.100;25.222;2023-05-29T07:07:35;5.93;;;4.10;;
8640;SDS011;4358;42.100;25.222;2023-05-29T07:10:01;4.37;;;3.13;;
8640;SDS011;4358;42.100;25.222;2023-05-29T07:12:30;4.03;;;3.63;;
8640;SDS011;4358;42.100;25.222;2023-05-29T07:14:57;5.17;;;3.73;;
8640;SDS011;4358;42.100;25.222;2023-05-29T07:17:23;4.90;;;3.80;;
8640;SDS011;4358;42.100;25.222;2023-05-29T07:19:50;3.80;;;3.27;;
8640;SDS011;4358;42.100;25.222;2023-05-29T07:22:18;4.33;;;3.30;;
8640;SDS011;4358;42.100;25.222;2023-05-29T07:24:45;3.40;;;3.10;;
8640;SDS011;4358;42.100;25.222;2023-05-29T07:27:12;3.70;;;3.40;;
8640;SDS011;4358;42.100;25.222;2023-05-29T07:29:41;3.63;;;3.30;;
8640;SDS011;4358;42.100;25.222;2023-05-29T07:32:08;4.53;;;3.43;;
8640;SDS011;4358;42.100;25.222;2023-05-29T07:34:36;4.97;;;3.70;;
8640;SDS011;4358;42.100;25.222;2023-05-29T07:37:03;7.00;;;4.20;;
8640;SDS011;4358;42.100;25.222;2023-05-29T07:39:30;7.03;;;3.63;;
8640;SDS011;4358;42.100;25.222;2023-05-29T07:41:58;6.63;;;3.57;;
8640;SDS011;4358;42.100;25.222;2023-05-29T07:44:26;3.90;;;3.50;;
8640;SDS011;4358;42.100;25.222;2023-05-29T07:46:55;7.90;;;3.87;;
8640;SDS011;4358;42.100;25.222;2023-05-29T07:49:21;4.30;;;3.73;;
8640;SDS011;4358;42.100;25.222;2023-05-29T07:51:48;5.03;;;3.80;;
8640;SDS011;4358;42.100;25.222;2023-05-29T07:54:15;5.73;;;4.13;;
8640;SDS011;4358;42.100;25.222;2023-05-29T07:56:45;6.17;;;4.03;;
8640;SDS011;4358;42.100;25.222;2023-05-29T07:59:13;4.60;;;4.00;;
8640;SDS011;4358;42.100;25.222;2023-05-29T08:01:40;4.87;;;4.30;;
8640;SDS011;4358;42.100;25.222;2023-05-29T08:04:11;4.53;;;4.13;;
8640;SDS011;4358;42.100;25.222;2023-05-29T08:06:38;5.27;;;4.17;;
8640;SDS011;4358;42.100;25.222;2023-05-29T08:09:07;5.50;;;4.10;;
8640;SDS011;4358;42.100;25.222;2023-05-29T08:11:35;4.90;;;4.40;;
8640;SDS011;4358;42.100;25.222;2023-05-29T08:14:02;4.93;;;4.43;;
8640;SDS011;4358;42.100;25.222;2023-05-29T08:16:29;7.60;;;4.50;;
8640;SDS011;4358;42.100;25.222;2023-05-29T08:18:56;4.97;;;4.13;;
8640;SDS011;4358;42.100;25.222;2023-05-29T08:21:24;8.07;;;4.83;;
8640;SDS011;4358;42.100;25.222;2023-05-29T08:23:52;5.40;;;4.50;;
8640;SDS011;4358;42.100;25.222;2023-05-29T08:26:19;4.83;;;4.43;;
8640;SDS011;4358;42.100;25.222;2023-05-29T08:28:45;9.37;;;4.63;;
8640;SDS011;4358;42.100;25.222;2023-05-29T08:31:12;7.17;;;4.60;;
8640;SDS011;4358;42.100;25.222;2023-05-29T08:33:39;5.07;;;4.40;;
8640;SDS011;4358;42.100;25.222;2023-05-29T08:36:06;6.77;;;4.67;;
8640;SDS011;4358;42.100;25.222;2023-05-29T08:38:35;8.20;;;4.83;;
8640;SDS011;4358;42.100;25.222;2023-05-29T08:41:02;5.43;;;4.70;;
8640;SDS011;4358;42.100;25.222;2023-05-29T08:43:30;5.53;;;4.43;;
8640;SDS011;4358;42.100;25.222;2023-05-29T08:45:59;5.77;;;3.90;;
8640;SDS011;4358;42.100;25.222;2023-05-29T08:48:27;5.87;;;4.43;;
8640;SDS011;4358;42.100;25.222;2023-05-29T08:50:55;5.63;;;4.40;;
8640;SDS011;4358;42.100;25.222;2023-05-29T08:53:22;4.80;;;4.30;;
8640;SDS011;4358;42.100;25.222;2023-05-29T08:55:51;4.53;;;4.03;;
8640;SDS011;4358;42.100;25.222;2023-05-29T08:58:21;6.17;;;3.90;;
8640;SDS011;4358;42.100;25.222;2023-05-29T09:00:48;4.50;;;3.77;;
8640;SDS011;4358;42.100;25.222;2023-05-29T09:03:16;6.97;;;4.33;;
8640;SDS011;4358;42.100;25.222;2023-05-29T09:05:45;5.37;;;4.27;;
8640;SDS011;4358;42.100;25.222;2023-05-29T09:08:12;4.90;;;4.07;;
8640;SDS011;4358;42.100;25.222;2023-05-29T09:10:40;5.73;;;4.30;;
8640;SDS011;4358;42.100;25.222;2023-05-29T09:13:10;6.67;;;3.80;;
8640;SDS011;4358;42.100;25.222;2023-05-29T09:15:38;5.10;;;4.13;;
8640;SDS011;4358;42.100;25.222;2023-05-29T09:18:08;4.20;;;3.63;;
8640;SDS011;4358;42.100;25.222;2023-05-29T09:20:35;5.10;;;3.80;;
8640;SDS011;4358;42.100;25.222;2023-05-29T09:23:03;4.80;;;3.90;;
8640;SDS011;4358;42.100;25.222;2023-05-29T09:25:31;4.83;;;3.40;;
8640;SDS011;4358;42.100;25.222;2023-05-29T09:27:59;5.13;;;3.87;;
8640;SDS011;4358;42.100;25.222;2023-05-29T09:30:32;7.37;;;3.40;;
8640;SDS011;4358;42.100;25.222;2023-05-29T09:33:01;3.63;;;3.33;;
8640;SDS011;4358;42.100;25.222;2023-05-29T09:35:32;3.57;;;3.27;;
8640;SDS011;4358;42.100;25.222;2023-05-29T09:38:00;3.00;;;2.70;;
8640;SDS011;4358;42.100;25.222;2023-05-29T09:40:29;3.60;;;2.73;;
8640;SDS011;4358;42.100;25.222;2023-05-29T09:43:01;4.23;;;2.90;;
8640;SDS011;4358;42.100;25.222;2023-05-29T09:45:32;4.23;;;2.90;;
8640;SDS011;4358;42.100;25.222;2023-05-29T09:47:59;5.07;;;2.60;;
8640;SDS011;4358;42.100;25.222;2023-05-29T09:50:26;3.00;;;2.70;;
8640;SDS011;4358;42.100;25.222;2023-05-29T09:52:55;2.70;;;2.50;;
8640;SDS011;4358;42.100;25.222;2023-05-29T09:55:23;4.07;;;2.70;;
8640;SDS011;4358;42.100;25.222;2023-05-29T09:57:52;3.00;;;2.60;;
8640;SDS011;4358;42.100;25.222;2023-05-29T10:00:19;2.93;;;2.63;;
8640;SDS011;4358;42.100;25.222;2023-05-29T10:02:49;5.17;;;3.03;;
8640;SDS011;4358;42.100;25.222;2023-05-29T10:05:16;3.83;;;2.47;;
8640;SDS011;4358;42.100;25.222;2023-05-29T10:07:43;2.57;;;2.37;;
8640;SDS011;4358;42.100;25.222;2023-05-29T10:10:13;3.00;;;2.50;;
8640;SDS011;4358;42.100;25.222;2023-05-29T10:12:42;3.50;;;2.70;;
8640;SDS011;4358;42.100;25.222;2023-05-29T10:15:11;3.10;;;2.80;;
8640;SDS011;4358;42.100;25.222;2023-05-29T10:17:39;3.73;;;2.97;;
8640;SDS011;4358;42.100;25.222;2023-05-29T10:20:17;2.83;;;2.23;;
8640;SDS011;4358;42.100;25.222;2023-05-29T10:22:47;4.77;;;3.10;;
8640;SDS011;4358;42.100;25.222;2023-05-29T10:25:18;4.17;;;2.57;;
8640;SDS011;4358;42.100;25.222;2023-05-29T10:27:46;8.17;;;2.83;;
8640;SDS011;4358;42.100;25.222;2023-05-29T10:30:16;4.70;;;2.63;;
8640;SDS011;4358;42.100;25.222;2023-05-29T10:33:00;2.60;;;2.40;;
8640;SDS011;4358;42.100;25.222;2023-05-29T10:35:39;2.67;;;2.47;;
8640;SDS011;4358;42.100;25.222;2023-05-29T10:38:11;3.60;;;2.50;;
8640;SDS011;4358;42.100;25.222;2023-05-29T10:40:41;3.47;;;2.80;;
8640;SDS011;4358;42.100;25.222;2023-05-29T10:43:09;2.20;;;2.00;;
8640;SDS011;4358;42.100;25.222;2023-05-29T10:45:57;3.00;;;2.33;;
8640;SDS011;4358;42.100;25.222;2023-05-29T10:48:40;2.77;;;2.40;;
8640;SDS011;4358;42.100;25.222;2023-05-29T10:51:23;2.60;;;2.40;;
8640;SDS011;4358;42.100;25.222;2023-05-29T10:53:52;2.30;;;2.10;;
8640;SDS011;4358;42.100;25.222;2023-05-29T10:56:22;2.97;;;2.03;;
8640;SDS011;4358;42.100;25.222;2023-05-29T10:58:54;2.40;;;2.03;;
8640;SDS011;4358;42.100;25.222;2023-05-29T11:01:22;4.67;;;2.83;;
8640;SDS011;4358;42.100;25.222;2023-05-29T11:03:50;4.23;;;2.70;;
8640;SDS011;4358;42.100;25.222;2023-05-29T11:06:20;2.70;;;2.13;;
8640;SDS011;4358;42.100;25.222;2023-05-29T11:08:53;3.77;;;2.03;;
8640;SDS011;4358;42.100;25.222;2023-05-29T11:11:28;3.07;;;2.67;;
8640;SDS011;4358;42.100;25.222;2023-05-29T11:13:57;3.00;;;2.33;;
8640;SDS011;4358;42.100;25.222;2023-05-29T11:16:37;3.23;;;2.43;;
8640;SDS011;4358;42.100;25.222;2023-05-29T11:19:04;2.70;;;2.30;;
8640;SDS011;4358;42.100;25.222;2023-05-29T11:21:37;3.63;;;2.50;;
8640;SDS011;4358;42.100;25.222;2023-05-29T11:24:21;2.30;;;2.10;;
8640;SDS011;4358;42.100;25.222;2023-05-29T11:26:50;2.73;;;2.40;;
8640;SDS011;4358;42.100;25.222;2023-05-29T11:29:20;4.00;;;2.17;;
8640;SDS011;4358;42.100;25.222;2023-05-29T11:31:49;2.37;;;2.17;;
8640;SDS011;4358;42.100;25.222;2023-05-29T11:34:24;2.40;;;2.20;;
8640;SDS011;4358;42.100;25.222;2023-05-29T11:36:56;2.10;;;1.90;;
8640;SDS011;4358;42.100;25.222;2023-05-29T11:39:23;2.20;;;2.00;;
8640;SDS011;4358;42.100;25.222;2023-05-29T11:41:50;2.20;;;2.00;;
8640;SDS011;4358;42.100;25.222;2023-05-29T11:44:18;3.53;;;2.23;;
8640;SDS011;4358;42.100;25.222;2023-05-29T11:46:45;2.27;;;2.07;;
8640;SDS011;4358;42.100;25.222;2023-05-29T11:49:11;3.30;;;2.20;;
8640;SDS011;4358;42.100;25.222;2023-05-29T11:51:41;3.10;;;2.07;;
8640;SDS011;4358;42.100;25.222;2023-05-29T11:54:12;4.60;;;2.50;;
8640;SDS011;4358;42.100;25.222;2023-05-29T11:56:39;5.13;;;2.40;;
8640;SDS011;4358;42.100;25.222;2023-05-29T11:59:10;2.30;;;2.10;;
8640;SDS011;4358;42.100;25.222;2023-05-29T12:01:37;3.40;;;2.30;;
8640;SDS011;4358;42.100;25.222;2023-05-29T12:04:13;3.03;;;2.30;;
8640;SDS011;4358;42.100;25.222;2023-05-29T12:06:40;6.93;;;2.50;;
8640;SDS011;4358;42.100;25.222;2023-05-29T12:09:07;3.47;;;2.57;;
8640;SDS011;4358;42.100;25.222;2023-05-29T12:11:35;2.97;;;2.53;;
8640;SDS011;4358;42.100;25.222;2023-05-29T12:14:02;4.20;;;2.40;;
8640;SDS011;4358;42.100;25.222;2023-05-29T12:16:30;5.27;;;2.47;;
8640;SDS011;4358;42.100;25.222;2023-05-29T12:19:00;6.17;;;2.33;;
8640;SDS011;4358;42.100;25.222;2023-05-29T12:21:27;2.80;;;2.40;;
8640;SDS011;4358;42.100;25.222;2023-05-29T12:23:54;10.40;;;2.47;;
8640;SDS011;4358;42.100;25.222;2023-05-29T12:26:21;5.00;;;2.40;;
8640;SDS011;4358;42.100;25.222;2023-05-29T12:28:50;4.70;;;2.77;;
8640;SDS011;4358;42.100;25.222;2023-05-29T12:31:26;4.37;;;2.67;;
8640;SDS011;4358;42.100;25.222;2023-05-29T12:33:58;3.20;;;2.90;;
8640;SDS011;4358;42.100;25.222;2023-05-29T12:36:26;3.17;;;2.70;;
8640;SDS011;4358;42.100;25.222;2023-05-29T12:38:52;4.53;;;3.37;;
8640;SDS011;4358;42.100;25.222;2023-05-29T12:41:22;3.43;;;2.80;;
8640;SDS011;4358;42.100;25.222;2023-05-29T12:43:53;5.17;;;3.30;;
8640;SDS011;4358;42.100;25.222;2023-05-29T12:46:22;8.03;;;2.90;;
8640;SDS011;4358;42.100;25.222;2023-05-29T12:48:49;3.57;;;3.20;;
8640;SDS011;4358;42.100;25.222;2023-05-29T12:51:22;4.87;;;3.07;;
8640;SDS011;4358;42.100;25.222;2023-05-29T12:53:49;8.03;;;3.63;;
8640;SDS011;4358;42.100;25.222;2023-05-29T12:56:19;6.00;;;3.60;;
8640;SDS011;4358;42.100;25.222;2023-05-29T12:58:47;6.80;;;4.83;;
8640;SDS011;4358;42.100;25.222;2023-05-29T13:01:15;7.43;;;4.27;;
8640;SDS011;4358;42.100;25.222;2023-05-29T13:03:42;4.97;;;4.00;;
8640;SDS011;4358;42.100;25.222;2023-05-29T13:06:09;8.60;;;3.90;;
8640;SDS011;4358;42.100;25.222;2023-05-29T13:08:37;5.07;;;4.10;;
8640;SDS011;4358;42.100;25.222;2023-05-29T13:11:04;4.00;;;3.60;;
8640;SDS011;4358;42.100;25.222;2023-05-29T13:13:30;4.60;;;4.20;;
8640;SDS011;4358;42.100;25.222;2023-05-29T13:15:57;5.73;;;4.27;;
8640;SDS011;4358;42.100;25.222;2023-05-29T13:18:25;5.30;;;4.30;;
8640;SDS011;4358;42.100;25.222;2023-05-29T13:20:52;6.27;;;4.73;;
8640;SDS011;4358;42.100;25.222;2023-05-29T13:23:19;7.50;;;4.67;;
8640;SDS011;4358;42.100;25.222;2023-05-29T13:25:46;8.53;;;4.67;;
8640;SDS011;4358;42.100;25.222;2023-05-29T13:28:14;5.30;;;4.30;;
8640;SDS011;4358;42.100;25.222;2023-05-29T13:30:41;6.70;;;4.30;;
8640;SDS011;4358;42.100;25.222;2023-05-29T13:33:08;4.67;;;4.20;;
8640;SDS011;4358;42.100;25.222;2023-05-29T13:35:36;7.47;;;4.53;;
8640;SDS011;4358;42.100;25.222;2023-05-29T13:38:03;7.93;;;4.37;;
8640;SDS011;4358;42.100;25.222;2023-05-29T13:40:30;8.80;;;5.00;;
8640;SDS011;4358;42.100;25.222;2023-05-29T13:42:57;5.43;;;4.17;;
8640;SDS011;4358;42.100;25.222;2023-05-29T13:45:24;4.87;;;4.27;;
8640;SDS011;4358;42.100;25.222;2023-05-29T13:47:53;5.47;;;4.97;;
8640;SDS011;4358;42.100;25.222;2023-05-29T13:50:20;5.90;;;4.20;;
8640;SDS011;4358;42.100;25.222;2023-05-29T13:52:50;5.30;;;3.87;;
8640;SDS011;4358;42.100;25.222;2023-05-29T13:55:17;4.97;;;4.10;;
8640;SDS011;4358;42.100;25.222;2023-05-29T13:57:43;6.00;;;5.03;;
8640;SDS011;4358;42.100;25.222;2023-05-29T14:00:11;7.07;;;5.13;;
8640;SDS011;4358;42.100;25.222;2023-05-29T14:02:38;6.37;;;4.90;;
8640;SDS011;4358;42.100;25.222;2023-05-29T14:05:05;5.50;;;5.00;;
8640;SDS011;4358;42.100;25.222;2023-05-29T14:07:33;8.47;;;5.27;;
8640;SDS011;4358;42.100;25.222;2023-05-29T14:10:01;7.77;;;4.27;;
8640;SDS011;4358;42.100;25.222;2023-05-29T14:12:28;4.97;;;4.07;;
8640;SDS011;4358;42.100;25.222;2023-05-29T14:14:55;6.30;;;4.10;;
8640;SDS011;4358;42.100;25.222;2023-05-29T14:17:22;7.50;;;4.80;;
8640;SDS011;4358;42.100;25.222;2023-05-29T14:19:51;4.97;;;3.80;;
8640;SDS011;4358;42.100;25.222;2023-05-29T14:22:18;4.07;;;3.50;;
8640;SDS011;4358;42.100;25.222;2023-05-29T14:24:44;5.93;;;4.30;;
8640;SDS011;4358;42.100;25.222;2023-05-29T14:27:13;5.77;;;4.20;;
8640;SDS011;4358;42.100;25.222;2023-05-29T14:29:40;4.90;;;4.23;;
8640;SDS011;4358;42.100;25.222;2023-05-29T14:32:06;7.63;;;4.60;;
8640;SDS011;4358;42.100;25.222;2023-05-29T14:34:33;9.10;;;4.83;;
8640;SDS011;4358;42.100;25.222;2023-05-29T14:37:00;6.13;;;5.10;;
8640;SDS011;4358;42.100;25.222;2023-05-29T14:39:27;6.77;;;5.47;;
8640;SDS011;4358;42.100;25.222;2023-05-29T14:41:54;5.93;;;5.33;;
8640;SDS011;4358;42.100;25.222;2023-05-29T14:44:22;10.17;;;5.23;;
8640;SDS011;4358;42.100;25.222;2023-05-29T14:46:49;5.40;;;4.67;;
8640;SDS011;4358;42.100;25.222;2023-05-29T14:49:16;8.73;;;5.07;;
8640;SDS011;4358;42.100;25.222;2023-05-29T14:51:43;4.70;;;4.20;;
8640;SDS011;4358;42.100;25.222;2023-05-29T14:54:10;4.40;;;3.23;;
8640;SDS011;4358;42.100;25.222;2023-05-29T14:56:37;4.23;;;3.83;;
8640;SDS011;4358;42.100;25.222;2023-05-29T14:59:04;5.00;;;3.60;;
8640;SDS011;4358;42.100;25.222;2023-05-29T15:01:32;4.03;;;3.13;;
8640;SDS011;4358;42.100;25.222;2023-05-29T15:03:59;5.03;;;3.47;;
8640;SDS011;4358;42.100;25.222;2023-05-29T15:06:26;4.10;;;3.20;;
8640;SDS011;4358;42.100;25.222;2023-05-29T15:08:54;5.73;;;3.10;;